NORTHEAST SUFFOLK  -  Rip Current Statement Rip Current Statement        NORTHERN NASSAU  -  Rip Current Statement Rip Current Statement        NORTHERN QUEENS  -  Rip Current Statement Rip Current Statement     Air Quality Alert Air Quality Alert        NORTHWEST SUFFOLK  -  Rip Current Statement Rip Current Statement        SOUTHEAST SUFFOLK  -  Rip Current Statement Rip Current Statement        SOUTHERN NASSAU  -  Rip Current Statement Rip Current Statement        SOUTHERN QUEENS  -  Rip Current Statement Rip Current Statement     Air Quality Alert Air Quality Alert        SOUTHWEST SUFFOLK  -  Rip Current Statement Rip Current Statement      

Active alerts

Northern Queens
  Details for Northern Queens Rip Current Statement  +1 additional alert
Southern Queens
  Details for Southern Queens Rip Current Statement  +1 additional alert
Northern Nassau
  Details for Northern Nassau Rip Current Statement
Southern Nassau
  Details for Southern Nassau Rip Current Statement
Northwest Suffolk
  Details for Northwest Suffolk Rip Current Statement
Southwest Suffolk
  Details for Southwest Suffolk Rip Current Statement
Northeast Suffolk
  Details for Northeast Suffolk Rip Current Statement
Southeast Suffolk
  Details for Southeast Suffolk Rip Current Statement


WXM80 ListenWXM80 Stop

You find our weather info also at:

UK Metoffice

WeatherCloud

Weather Underground

Northeastern Weather Network

AWEKAS

Citizen Weather Observer Program (CWOP)

HAMweather, WeatherForYou, PWS Weather


Weather Underground History page Text

Daily Summary for July 29, 2017 Units:  Both    English   Metric
« Previous Day
Next Day »
Daily Weekly Monthly Yearly Custom
  High: Low: Average:
Temperature: 73.5 °F /  23.1 °C 67.3 °F /  19.6 °C 70.1 °F /  21.2 °C
Dew Point: 70.6 °F /  21.4 °C 58.1 °F /  14.5 °C 60.9 °F /  16.1 °C
Humidity: 91 % 67 % 73 %
Wind Speed: 9.8 mph /  15.8 km/h - 4.9 mph /  7.9 km/h
Wind Gust: 17.3 mph /  27.8 km/h - -
Wind:- - ENE
Pressure: 29.84 in /  1010.4 hPa 29.72 in /  1006.3 hPa -
Precipitation: 0.00 in /  0 mm    
Historical Graphs
 
 
Tabular Data for July 29, 2017
Time Temperature Dew Point Pressure Wind Wind Speed Wind Gust Humidity Rainfall Rate (Hourly)
00:04 73.4 °F /  23 °C 70.3 °F /  21.3 °C 29.74 in /  1007 hPa West 1.0 mph /  1.6 km/h 3.0 mph /  4.8 km/h 90 % 0.00 in /  0 mm
00:09 73.4 °F /  23 °C 70.6 °F /  21.4 °C 29.74 in /  1007 hPa North 0.6 mph /  1 km/h 3.5 mph /  5.6 km/h 91 % 0.00 in /  0 mm
00:14 73.3 °F /  22.9 °C 70.5 °F /  21.4 °C 29.74 in /  1007 hPa North 4.3 mph /  6.9 km/h 6.9 mph /  11.1 km/h 91 % 0.00 in /  0 mm
00:15 73.3 °F /  22.9 °C 70.2 °F /  21.2 °C 29.74 in /  1007 hPa NE 2.9 mph /  4.7 km/h 5.8 mph /  9.3 km/h 90 % 0.00 in /  0 mm
00:20 73.0 °F /  22.8 °C 69.6 °F /  20.9 °C 29.74 in /  1007 hPa NE 3.8 mph /  6.1 km/h 8.1 mph /  13 km/h 89 % 0.00 in /  0 mm
00:25 72.9 °F /  22.7 °C 68.8 °F /  20.4 °C 29.74 in /  1007 hPa NNE 4.6 mph /  7.4 km/h 6.9 mph /  11.1 km/h 87 % 0.00 in /  0 mm
00:30 72.9 °F /  22.7 °C 68.5 °F /  20.3 °C 29.74 in /  1007 hPa NE 2.5 mph /  4 km/h 4.6 mph /  7.4 km/h 86 % 0.00 in /  0 mm
00:35 72.8 °F /  22.7 °C 68.0 °F /  20 °C 29.74 in /  1007 hPa East 3.0 mph /  4.8 km/h 6.9 mph /  11.1 km/h 85 % 0.00 in /  0 mm
00:40 72.8 °F /  22.7 °C 67.3 °F /  19.6 °C 29.74 in /  1007 hPa ENE 2.0 mph /  3.2 km/h 9.2 mph /  14.8 km/h 83 % 0.00 in /  0 mm
00:43 72.9 °F /  22.7 °C 67.4 °F /  19.7 °C 29.74 in /  1007 hPa NE 4.1 mph /  6.6 km/h 7.0 mph /  11.3 km/h 83 % 0.00 in /  0 mm
00:48 72.8 °F /  22.7 °C 67.0 °F /  19.4 °C 29.74 in /  1007 hPa NE 2.8 mph /  4.5 km/h 8.1 mph /  13 km/h 82 % 0.00 in /  0 mm
00:53 72.8 °F /  22.7 °C 66.3 °F /  19.1 °C 29.74 in /  1007 hPa ENE 3.3 mph /  5.3 km/h 3.5 mph /  5.6 km/h 80 % 0.00 in /  0 mm
00:58 72.8 °F /  22.7 °C 66.3 °F /  19.1 °C 29.74 in /  1007 hPa ENE 5.0 mph /  8 km/h 9.0 mph /  14.5 km/h 80 % 0.00 in /  0 mm
01:04 72.9 °F /  22.7 °C 66.0 °F /  18.9 °C 29.73 in /  1006.7 hPa NE 3.9 mph /  6.3 km/h 5.0 mph /  8 km/h 79 % 0.00 in /  0 mm
01:09 72.9 °F /  22.7 °C 66.0 °F /  18.9 °C 29.74 in /  1007 hPa NE 6.0 mph /  9.7 km/h 10.4 mph /  16.7 km/h 79 % 0.00 in /  0 mm
01:14 72.9 °F /  22.7 °C 65.6 °F /  18.7 °C 29.74 in /  1007 hPa NE 3.4 mph /  5.5 km/h 8.0 mph /  12.9 km/h 78 % 0.00 in /  0 mm
01:19 72.9 °F /  22.7 °C 65.6 °F /  18.7 °C 29.74 in /  1007 hPa ENE 4.1 mph /  6.6 km/h 6.0 mph /  9.7 km/h 78 % 0.00 in /  0 mm
01:24 72.8 °F /  22.7 °C 64.8 °F /  18.2 °C 29.74 in /  1007 hPa ENE 4.8 mph /  7.7 km/h 8.1 mph /  13 km/h 76 % 0.00 in /  0 mm
01:25 72.8 °F /  22.7 °C 64.8 °F /  18.2 °C 29.73 in /  1006.7 hPa NE 3.8 mph /  6.1 km/h 8.1 mph /  13 km/h 76 % 0.00 in /  0 mm
01:35 72.8 °F /  22.7 °C 64.8 °F /  18.2 °C 29.74 in /  1007 hPa NE 2.5 mph /  4 km/h 6.9 mph /  11.1 km/h 76 % 0.00 in /  0 mm
01:40 72.8 °F /  22.7 °C 64.4 °F /  18 °C 29.74 in /  1007 hPa ENE 5.0 mph /  8 km/h 8.1 mph /  13 km/h 75 % 0.00 in /  0 mm
01:45 72.7 °F /  22.6 °C 64.7 °F /  18.2 °C 29.74 in /  1007 hPa East 3.6 mph /  5.8 km/h 8.0 mph /  12.9 km/h 76 % 0.00 in /  0 mm
01:50 72.6 °F /  22.6 °C 63.4 °F /  17.4 °C 29.74 in /  1007 hPa ENE 5.3 mph /  8.5 km/h 8.1 mph /  13 km/h 73 % 0.00 in /  0 mm
01:55 72.6 °F /  22.6 °C 63.1 °F /  17.3 °C 29.74 in /  1007 hPa NE 4.8 mph /  7.7 km/h 9.2 mph /  14.8 km/h 72 % 0.00 in /  0 mm
02:00 72.6 °F /  22.6 °C 63.4 °F /  17.4 °C 29.74 in /  1007 hPa NE 3.0 mph /  4.8 km/h 4.6 mph /  7.4 km/h 73 % 0.00 in /  0 mm
02:05 72.6 °F /  22.6 °C 63.8 °F /  17.7 °C 29.73 in /  1006.7 hPa NE 3.1 mph /  5 km/h 8.1 mph /  13 km/h 74 % 0.00 in /  0 mm
02:10 72.5 °F /  22.5 °C 63.4 °F /  17.4 °C 29.73 in /  1006.7 hPa NE 4.1 mph /  6.6 km/h 8.1 mph /  13 km/h 73 % 0.00 in /  0 mm
02:15 72.5 °F /  22.5 °C 64.1 °F /  17.8 °C 29.73 in /  1006.7 hPa NE 4.9 mph /  7.9 km/h 7.0 mph /  11.3 km/h 75 % 0.00 in /  0 mm
02:20 72.4 °F /  22.4 °C 63.6 °F /  17.6 °C 29.73 in /  1006.7 hPa ENE 3.0 mph /  4.8 km/h 6.9 mph /  11.1 km/h 74 % 0.00 in /  0 mm
02:30 72.3 °F /  22.4 °C 63.2 °F /  17.3 °C 29.74 in /  1007 hPa ENE 3.2 mph /  5.1 km/h 8.1 mph /  13 km/h 73 % 0.00 in /  0 mm
02:35 72.3 °F /  22.4 °C 63.5 °F /  17.5 °C 29.73 in /  1006.7 hPa NE 4.6 mph /  7.4 km/h 9.2 mph /  14.8 km/h 74 % 0.00 in /  0 mm
02:40 72.2 °F /  22.3 °C 63.1 °F /  17.3 °C 29.73 in /  1006.7 hPa ENE 4.4 mph /  7.1 km/h 10.0 mph /  16.1 km/h 73 % 0.00 in /  0 mm
02:41 72.2 °F /  22.3 °C 63.1 °F /  17.3 °C 29.73 in /  1006.7 hPa NE 5.0 mph /  8 km/h 12.0 mph /  19.3 km/h 73 % 0.00 in /  0 mm
02:46 72.1 °F /  22.3 °C 63.0 °F /  17.2 °C 29.73 in /  1006.7 hPa ENE 6.0 mph /  9.7 km/h 13.0 mph /  20.9 km/h 73 % 0.00 in /  0 mm
02:51 72.0 °F /  22.2 °C 63.3 °F /  17.4 °C 29.73 in /  1006.7 hPa ENE 5.0 mph /  8 km/h 13.0 mph /  20.9 km/h 74 % 0.00 in /  0 mm
02:56 71.9 °F /  22.2 °C 63.2 °F /  17.3 °C 29.73 in /  1006.7 hPa ENE 5.0 mph /  8 km/h 8.0 mph /  12.9 km/h 74 % 0.00 in /  0 mm
03:01 71.9 °F /  22.2 °C 63.2 °F /  17.3 °C 29.72 in /  1006.3 hPa NE 4.4 mph /  7.1 km/h 6.9 mph /  11.1 km/h 74 % 0.00 in /  0 mm
03:06 71.8 °F /  22.1 °C 63.1 °F /  17.3 °C 29.72 in /  1006.3 hPa ENE 4.0 mph /  6.4 km/h 8.1 mph /  13 km/h 74 % 0.00 in /  0 mm
03:11 71.8 °F /  22.1 °C 62.3 °F /  16.8 °C 29.73 in /  1006.7 hPa ENE 6.2 mph /  10 km/h 11.5 mph /  18.5 km/h 72 % 0.00 in /  0 mm
03:16 71.7 °F /  22.1 °C 62.6 °F /  17 °C 29.73 in /  1006.7 hPa ENE 5.2 mph /  8.4 km/h 10.4 mph /  16.7 km/h 73 % 0.00 in /  0 mm
03:21 71.7 °F /  22.1 °C 61.4 °F /  16.3 °C 29.73 in /  1006.7 hPa ENE 7.3 mph /  11.7 km/h 13.8 mph /  22.2 km/h 70 % 0.00 in /  0 mm
03:26 71.6 °F /  22 °C 61.3 °F /  16.3 °C 29.73 in /  1006.7 hPa ENE 8.4 mph /  13.5 km/h 14.0 mph /  22.5 km/h 70 % 0.00 in /  0 mm
03:31 71.5 °F /  21.9 °C 60.8 °F /  16 °C 29.73 in /  1006.7 hPa ENE 8.0 mph /  12.9 km/h 11.5 mph /  18.5 km/h 69 % 0.00 in /  0 mm
03:36 71.5 °F /  21.9 °C 60.8 °F /  16 °C 29.73 in /  1006.7 hPa NE 7.9 mph /  12.7 km/h 10.4 mph /  16.7 km/h 69 % 0.00 in /  0 mm
03:41 71.4 °F /  21.9 °C 60.7 °F /  15.9 °C 29.73 in /  1006.7 hPa ENE 7.4 mph /  11.9 km/h 13.8 mph /  22.2 km/h 69 % 0.00 in /  0 mm
03:46 71.3 °F /  21.8 °C 60.6 °F /  15.9 °C 29.73 in /  1006.7 hPa ENE 6.6 mph /  10.6 km/h 15.0 mph /  24.1 km/h 69 % 0.00 in /  0 mm
03:51 71.3 °F /  21.8 °C 60.2 °F /  15.7 °C 29.73 in /  1006.7 hPa ENE 9.8 mph /  15.8 km/h 17.3 mph /  27.8 km/h 68 % 0.00 in /  0 mm
03:56 71.2 °F /  21.8 °C 59.7 °F /  15.4 °C 29.73 in /  1006.7 hPa NE 6.7 mph /  10.8 km/h 17.3 mph /  27.8 km/h 67 % 0.00 in /  0 mm
04:01 71.1 °F /  21.7 °C 60.4 °F /  15.8 °C 29.73 in /  1006.7 hPa East 7.3 mph /  11.7 km/h 13.8 mph /  22.2 km/h 69 % 0.00 in /  0 mm
04:07 71.1 °F /  21.7 °C 60.4 °F /  15.8 °C 29.73 in /  1006.7 hPa ENE 5.4 mph /  8.7 km/h 11.5 mph /  18.5 km/h 69 % 0.00 in /  0 mm
04:12 71.0 °F /  21.7 °C 59.5 °F /  15.3 °C 29.73 in /  1006.7 hPa East 8.3 mph /  13.4 km/h 11.5 mph /  18.5 km/h 67 % 0.00 in /  0 mm
04:17 70.9 °F /  21.6 °C 59.8 °F /  15.4 °C 29.73 in /  1006.7 hPa NE 6.2 mph /  10 km/h 10.4 mph /  16.7 km/h 68 % 0.00 in /  0 mm
04:22 70.9 °F /  21.6 °C 60.2 °F /  15.7 °C 29.73 in /  1006.7 hPa ENE 5.9 mph /  9.5 km/h 8.1 mph /  13 km/h 69 % 0.00 in /  0 mm
04:27 70.8 °F /  21.6 °C 59.7 °F /  15.4 °C 29.73 in /  1006.7 hPa NE 5.5 mph /  8.9 km/h 9.2 mph /  14.8 km/h 68 % 0.00 in /  0 mm
04:32 70.8 °F /  21.6 °C 60.1 °F /  15.6 °C 29.74 in /  1007 hPa ENE 5.9 mph /  9.5 km/h 11.5 mph /  18.5 km/h 69 % 0.00 in /  0 mm
04:37 70.7 °F /  21.5 °C 59.6 °F /  15.3 °C 29.74 in /  1007 hPa ENE 7.7 mph /  12.4 km/h 13.8 mph /  22.2 km/h 68 % 0.00 in /  0 mm
04:42 70.6 °F /  21.4 °C 59.5 °F /  15.3 °C 29.74 in /  1007 hPa ENE 6.5 mph /  10.5 km/h 11.5 mph /  18.5 km/h 68 % 0.00 in /  0 mm
04:47 70.5 °F /  21.4 °C 60.2 °F /  15.7 °C 29.74 in /  1007 hPa East 5.7 mph /  9.2 km/h 8.1 mph /  13 km/h 70 % 0.00 in /  0 mm
04:48 70.5 °F /  21.4 °C 60.2 °F /  15.7 °C 29.74 in /  1007 hPa NNE 4.6 mph /  7.4 km/h 8.1 mph /  13 km/h 70 % 0.00 in /  0 mm
04:53 70.4 °F /  21.3 °C 59.3 °F /  15.2 °C 29.74 in /  1007 hPa NE 5.2 mph /  8.4 km/h 9.2 mph /  14.8 km/h 68 % 0.00 in /  0 mm
04:58 70.3 °F /  21.3 °C 59.2 °F /  15.1 °C 29.74 in /  1007 hPa ENE 6.2 mph /  10 km/h 11.5 mph /  18.5 km/h 68 % 0.00 in /  0 mm
05:03 70.2 °F /  21.2 °C 59.1 °F /  15.1 °C 29.74 in /  1007 hPa NE 6.7 mph /  10.8 km/h 10.4 mph /  16.7 km/h 68 % 0.00 in /  0 mm
05:08 70.2 °F /  21.2 °C 59.6 °F /  15.3 °C 29.73 in /  1006.7 hPa ENE 4.8 mph /  7.7 km/h 8.1 mph /  13 km/h 69 % 0.00 in /  0 mm
05:13 70.1 °F /  21.2 °C 59.5 °F /  15.3 °C 29.74 in /  1007 hPa ENE 5.7 mph /  9.2 km/h 9.2 mph /  14.8 km/h 69 % 0.00 in /  0 mm
05:18 70.1 °F /  21.2 °C 59.5 °F /  15.3 °C 29.73 in /  1006.7 hPa NNE 4.8 mph /  7.7 km/h 6.9 mph /  11.1 km/h 69 % 0.00 in /  0 mm
05:23 70.1 °F /  21.2 °C 58.6 °F /  14.8 °C 29.73 in /  1006.7 hPa NE 6.2 mph /  10 km/h 12.7 mph /  20.4 km/h 67 % 0.00 in /  0 mm
05:28 70.0 °F /  21.1 °C 59.0 °F /  15 °C 29.74 in /  1007 hPa ENE 6.1 mph /  9.8 km/h 11.5 mph /  18.5 km/h 68 % 0.00 in /  0 mm
05:33 70.0 °F /  21.1 °C 59.0 °F /  15 °C 29.74 in /  1007 hPa NE 4.0 mph /  6.4 km/h 9.2 mph /  14.8 km/h 68 % 0.00 in /  0 mm
05:38 69.9 °F /  21.1 °C 58.9 °F /  14.9 °C 29.74 in /  1007 hPa East 6.1 mph /  9.8 km/h 10.4 mph /  16.7 km/h 68 % 0.00 in /  0 mm
05:43 69.8 °F /  21 °C 59.2 °F /  15.1 °C 29.74 in /  1007 hPa NE 6.8 mph /  10.9 km/h 16.1 mph /  25.9 km/h 69 % 0.00 in /  0 mm
05:48 69.7 °F /  20.9 °C 58.3 °F /  14.6 °C 29.74 in /  1007 hPa ENE 4.5 mph /  7.2 km/h 12.7 mph /  20.4 km/h 67 % 0.00 in /  0 mm
05:53 69.7 °F /  20.9 °C 59.5 °F /  15.3 °C 29.74 in /  1007 hPa ENE 6.2 mph /  10 km/h 11.5 mph /  18.5 km/h 70 % 0.00 in /  0 mm
05:59 69.6 °F /  20.9 °C 58.6 °F /  14.8 °C 29.74 in /  1007 hPa ENE 6.8 mph /  10.9 km/h 9.2 mph /  14.8 km/h 68 % 0.00 in /  0 mm
06:04 69.5 °F /  20.8 °C 58.9 °F /  14.9 °C 29.74 in /  1007 hPa ENE 5.3 mph /  8.5 km/h 15.0 mph /  24.1 km/h 69 % 0.00 in /  0 mm
06:09 69.4 °F /  20.8 °C 58.4 °F /  14.7 °C 29.74 in /  1007 hPa ENE 5.7 mph /  9.2 km/h 10.4 mph /  16.7 km/h 68 % 0.00 in /  0 mm
06:14 69.4 °F /  20.8 °C 58.8 °F /  14.9 °C 29.74 in /  1007 hPa ENE 6.3 mph /  10.1 km/h 9.2 mph /  14.8 km/h 69 % 0.00 in /  0 mm
06:19 69.3 °F /  20.7 °C 58.7 °F /  14.8 °C 29.74 in /  1007 hPa North 6.4 mph /  10.3 km/h 9.2 mph /  14.8 km/h 69 % 0.00 in /  0 mm
06:21 69.3 °F /  20.7 °C 59.5 °F /  15.3 °C 29.74 in /  1007 hPa ENE 4.0 mph /  6.4 km/h 6.9 mph /  11.1 km/h 71 % 0.00 in /  0 mm
06:26 69.2 °F /  20.7 °C 59.0 °F /  15 °C 29.74 in /  1007 hPa ENE 7.3 mph /  11.7 km/h 11.5 mph /  18.5 km/h 70 % 0.00 in /  0 mm
06:31 69.1 °F /  20.6 °C 59.7 °F /  15.4 °C 29.74 in /  1007 hPa ENE 4.7 mph /  7.6 km/h 8.1 mph /  13 km/h 72 % 0.00 in /  0 mm
06:36 69.1 °F /  20.6 °C 59.7 °F /  15.4 °C 29.74 in /  1007 hPa ENE 6.5 mph /  10.5 km/h 11.5 mph /  18.5 km/h 72 % 0.00 in /  0 mm
06:41 69.0 °F /  20.6 °C 59.2 °F /  15.1 °C 29.75 in /  1007.3 hPa ENE 5.8 mph /  9.3 km/h 13.8 mph /  22.2 km/h 71 % 0.00 in /  0 mm
06:47 68.9 °F /  20.5 °C 59.5 °F /  15.3 °C 29.74 in /  1007 hPa NE 6.6 mph /  10.6 km/h 12.0 mph /  19.3 km/h 72 % 0.00 in /  0 mm
06:52 68.8 °F /  20.4 °C 59.0 °F /  15 °C 29.74 in /  1007 hPa ENE 8.5 mph /  13.7 km/h 12.0 mph /  19.3 km/h 71 % 0.00 in /  0 mm
06:57 68.8 °F /  20.4 °C 59.8 °F /  15.4 °C 29.74 in /  1007 hPa East 7.7 mph /  12.4 km/h 15.0 mph /  24.1 km/h 73 % 0.00 in /  0 mm
07:02 68.7 °F /  20.4 °C 59.3 °F /  15.2 °C 29.74 in /  1007 hPa East 7.1 mph /  11.4 km/h 10.4 mph /  16.7 km/h 72 % 0.00 in /  0 mm
07:07 68.6 °F /  20.3 °C 59.2 °F /  15.1 °C 29.74 in /  1007 hPa ENE 8.2 mph /  13.2 km/h 12.7 mph /  20.4 km/h 72 % 0.00 in /  0 mm
07:12 68.6 °F /  20.3 °C 59.6 °F /  15.3 °C 29.74 in /  1007 hPa NE 5.8 mph /  9.3 km/h 9.2 mph /  14.8 km/h 73 % 0.00 in /  0 mm
07:17 68.5 °F /  20.3 °C 59.9 °F /  15.5 °C 29.74 in /  1007 hPa ENE 5.6 mph /  9 km/h 9.2 mph /  14.8 km/h 74 % 0.00 in /  0 mm
07:22 68.4 °F /  20.2 °C 59.4 °F /  15.2 °C 29.75 in /  1007.3 hPa East 9.1 mph /  14.6 km/h 17.0 mph /  27.4 km/h 73 % 0.00 in /  0 mm
07:27 68.3 °F /  20.2 °C 58.9 °F /  14.9 °C 29.75 in /  1007.3 hPa ENE 8.4 mph /  13.5 km/h 14.0 mph /  22.5 km/h 72 % 0.00 in /  0 mm
07:32 68.3 °F /  20.2 °C 59.7 °F /  15.4 °C 29.76 in /  1007.7 hPa ENE 8.2 mph /  13.2 km/h 14.0 mph /  22.5 km/h 74 % 0.00 in /  0 mm
07:37 68.2 °F /  20.1 °C 60.0 °F /  15.6 °C 29.76 in /  1007.7 hPa East 6.2 mph /  10 km/h 10.4 mph /  16.7 km/h 75 % 0.00 in /  0 mm
07:42 68.2 °F /  20.1 °C 59.6 °F /  15.3 °C 29.76 in /  1007.7 hPa ENE 6.0 mph /  9.7 km/h 12.7 mph /  20.4 km/h 74 % 0.00 in /  0 mm
07:47 68.1 °F /  20.1 °C 59.1 °F /  15.1 °C 29.76 in /  1007.7 hPa ENE 7.9 mph /  12.7 km/h 15.0 mph /  24.1 km/h 73 % 0.00 in /  0 mm
07:52 68.0 °F /  20 °C 59.4 °F /  15.2 °C 29.76 in /  1007.7 hPa ENE 6.6 mph /  10.6 km/h 13.8 mph /  22.2 km/h 74 % 0.00 in /  0 mm
07:57 68.0 °F /  20 °C 59.4 °F /  15.2 °C 29.76 in /  1007.7 hPa NE 7.3 mph /  11.7 km/h 9.2 mph /  14.8 km/h 74 % 0.00 in /  0 mm
08:02 67.9 °F /  19.9 °C 58.9 °F /  14.9 °C 29.76 in /  1007.7 hPa ENE 9.7 mph /  15.6 km/h 11.5 mph /  18.5 km/h 73 % 0.00 in /  0 mm
08:07 67.9 °F /  19.9 °C 58.9 °F /  14.9 °C 29.76 in /  1007.7 hPa ENE 9.8 mph /  15.8 km/h 16.0 mph /  25.7 km/h 73 % 0.00 in /  0 mm
08:12 67.8 °F /  19.9 °C 58.8 °F /  14.9 °C 29.76 in /  1007.7 hPa NE 7.7 mph /  12.4 km/h 15.0 mph /  24.1 km/h 73 % 0.00 in /  0 mm
08:15 67.7 °F /  19.8 °C 58.7 °F /  14.8 °C 29.76 in /  1007.7 hPa ENE 7.3 mph /  11.7 km/h 15.0 mph /  24.1 km/h 73 % 0.00 in /  0 mm
08:20 67.7 °F /  19.8 °C 58.7 °F /  14.8 °C 29.76 in /  1007.7 hPa ENE 6.2 mph /  10 km/h 12.7 mph /  20.4 km/h 73 % 0.00 in /  0 mm
08:25 67.7 °F /  19.8 °C 58.7 °F /  14.8 °C 29.76 in /  1007.7 hPa East 8.4 mph /  13.5 km/h 15.0 mph /  24.1 km/h 73 % 0.00 in /  0 mm
08:30 67.6 °F /  19.8 °C 58.6 °F /  14.8 °C 29.76 in /  1007.7 hPa ENE 6.5 mph /  10.5 km/h 11.5 mph /  18.5 km/h 73 % 0.00 in /  0 mm
08:35 67.6 °F /  19.8 °C 58.6 °F /  14.8 °C 29.76 in /  1007.7 hPa ENE 7.0 mph /  11.3 km/h 11.5 mph /  18.5 km/h 73 % 0.00 in /  0 mm
08:36 67.6 °F /  19.8 °C 58.6 °F /  14.8 °C 29.76 in /  1007.7 hPa ENE 6.9 mph /  11.1 km/h 11.5 mph /  18.5 km/h 73 % 0.00 in /  0 mm
08:41 67.6 °F /  19.8 °C 59.0 °F /  15 °C 29.76 in /  1007.7 hPa ENE 6.1 mph /  9.8 km/h 12.7 mph /  20.4 km/h 74 % 0.00 in /  0 mm
08:46 67.6 °F /  19.8 °C 59.0 °F /  15 °C 29.75 in /  1007.3 hPa ENE 4.0 mph /  6.4 km/h 8.1 mph /  13 km/h 74 % 0.00 in /  0 mm
08:52 67.6 °F /  19.8 °C 58.6 °F /  14.8 °C 29.75 in /  1007.3 hPa ENE 6.5 mph /  10.5 km/h 13.8 mph /  22.2 km/h 73 % 0.00 in /  0 mm
08:57 67.5 °F /  19.7 °C 58.5 °F /  14.7 °C 29.75 in /  1007.3 hPa ENE 7.9 mph /  12.7 km/h 11.5 mph /  18.5 km/h 73 % 0.00 in /  0 mm
09:02 67.5 °F /  19.7 °C 58.9 °F /  14.9 °C 29.75 in /  1007.3 hPa ENE 5.8 mph /  9.3 km/h 10.0 mph /  16.1 km/h 74 % 0.00 in /  0 mm
09:07 67.5 °F /  19.7 °C 58.5 °F /  14.7 °C 29.75 in /  1007.3 hPa ENE 8.2 mph /  13.2 km/h 15.0 mph /  24.1 km/h 73 % 0.00 in /  0 mm
09:12 67.5 °F /  19.7 °C 58.2 °F /  14.6 °C 29.75 in /  1007.3 hPa East 7.7 mph /  12.4 km/h 10.4 mph /  16.7 km/h 72 % 0.00 in /  0 mm
09:17 67.5 °F /  19.7 °C 58.9 °F /  14.9 °C 29.75 in /  1007.3 hPa ENE 4.6 mph /  7.4 km/h 9.2 mph /  14.8 km/h 74 % 0.00 in /  0 mm
09:22 67.4 °F /  19.7 °C 58.4 °F /  14.7 °C 29.75 in /  1007.3 hPa NE 5.4 mph /  8.7 km/h 11.5 mph /  18.5 km/h 73 % 0.00 in /  0 mm
09:27 67.4 °F /  19.7 °C 58.4 °F /  14.7 °C 29.75 in /  1007.3 hPa ENE 5.6 mph /  9 km/h 9.2 mph /  14.8 km/h 73 % 0.00 in /  0 mm
09:32 67.3 °F /  19.6 °C 58.7 °F /  14.8 °C 29.75 in /  1007.3 hPa East 6.1 mph /  9.8 km/h 11.5 mph /  18.5 km/h 74 % 0.00 in /  0 mm
09:37 67.3 °F /  19.6 °C 58.3 °F /  14.6 °C 29.75 in /  1007.3 hPa North 7.4 mph /  11.9 km/h 11.5 mph /  18.5 km/h 73 % 0.00 in /  0 mm
09:42 67.3 °F /  19.6 °C 58.3 °F /  14.6 °C 29.75 in /  1007.3 hPa ENE 8.4 mph /  13.5 km/h 15.0 mph /  24.1 km/h 73 % 0.00 in /  0 mm
09:47 67.3 °F /  19.6 °C 58.3 °F /  14.6 °C 29.75 in /  1007.3 hPa ENE 7.2 mph /  11.6 km/h 17.3 mph /  27.8 km/h 73 % 0.00 in /  0 mm
09:52 67.3 °F /  19.6 °C 58.7 °F /  14.8 °C 29.75 in /  1007.3 hPa NE 6.1 mph /  9.8 km/h 15.0 mph /  24.1 km/h 74 % 0.00 in /  0 mm
09:57 67.4 °F /  19.7 °C 58.4 °F /  14.7 °C 29.75 in /  1007.3 hPa ENE 7.6 mph /  12.2 km/h 12.7 mph /  20.4 km/h 73 % 0.00 in /  0 mm
10:02 67.4 °F /  19.7 °C 58.8 °F /  14.9 °C 29.75 in /  1007.3 hPa NNE 5.9 mph /  9.5 km/h 9.2 mph /  14.8 km/h 74 % 0.00 in /  0 mm
10:07 67.4 °F /  19.7 °C 58.4 °F /  14.7 °C 29.75 in /  1007.3 hPa ENE 6.5 mph /  10.5 km/h 11.5 mph /  18.5 km/h 73 % 0.00 in /  0 mm
10:12 67.4 °F /  19.7 °C 58.1 °F /  14.5 °C 29.75 in /  1007.3 hPa East 6.7 mph /  10.8 km/h 15.0 mph /  24.1 km/h 72 % 0.00 in /  0 mm
10:17 67.5 °F /  19.7 °C 58.5 °F /  14.7 °C 29.75 in /  1007.3 hPa ENE 7.4 mph /  11.9 km/h 16.1 mph /  25.9 km/h 73 % 0.00 in /  0 mm
10:22 67.4 °F /  19.7 °C 58.8 °F /  14.9 °C 29.76 in /  1007.7 hPa ENE 8.0 mph /  12.9 km/h 11.5 mph /  18.5 km/h 74 % 0.00 in /  0 mm
10:27 67.4 °F /  19.7 °C 58.4 °F /  14.7 °C 29.76 in /  1007.7 hPa NE 5.0 mph /  8 km/h 9.2 mph /  14.8 km/h 73 % 0.00 in /  0 mm
10:32 67.4 °F /  19.7 °C 58.4 °F /  14.7 °C 29.77 in /  1008 hPa NE 6.0 mph /  9.7 km/h 9.0 mph /  14.5 km/h 73 % 0.00 in /  0 mm
10:37 67.5 °F /  19.7 °C 58.5 °F /  14.7 °C 29.76 in /  1007.7 hPa NE 5.5 mph /  8.9 km/h 10.4 mph /  16.7 km/h 73 % 0.00 in /  0 mm
10:42 67.5 °F /  19.7 °C 58.9 °F /  14.9 °C 29.76 in /  1007.7 hPa East 3.6 mph /  5.8 km/h 5.0 mph /  8 km/h 74 % 0.00 in /  0 mm
10:47 67.5 °F /  19.7 °C 58.5 °F /  14.7 °C 29.76 in /  1007.7 hPa East 7.9 mph /  12.7 km/h 12.7 mph /  20.4 km/h 73 % 0.00 in /  0 mm
10:52 67.5 °F /  19.7 °C 58.2 °F /  14.6 °C 29.76 in /  1007.7 hPa ENE 6.5 mph /  10.5 km/h 12.7 mph /  20.4 km/h 72 % 0.00 in /  0 mm
10:57 67.6 °F /  19.8 °C 59.0 °F /  15 °C 29.76 in /  1007.7 hPa ENE 4.3 mph /  6.9 km/h 10.4 mph /  16.7 km/h 74 % 0.00 in /  0 mm
11:02 67.7 °F /  19.8 °C 59.1 °F /  15.1 °C 29.77 in /  1008 hPa NE 3.9 mph /  6.3 km/h 9.2 mph /  14.8 km/h 74 % 0.00 in /  0 mm
11:07 67.8 °F /  19.9 °C 58.8 °F /  14.9 °C 29.77 in /  1008 hPa NNE 3.7 mph /  6 km/h 10.4 mph /  16.7 km/h 73 % 0.00 in /  0 mm
11:12 67.8 °F /  19.9 °C 58.8 °F /  14.9 °C 29.77 in /  1008 hPa ENE 5.7 mph /  9.2 km/h 8.1 mph /  13 km/h 73 % 0.00 in /  0 mm
11:17 67.8 °F /  19.9 °C 58.4 °F /  14.7 °C 29.77 in /  1008 hPa ENE 3.4 mph /  5.5 km/h 10.4 mph /  16.7 km/h 72 % 0.00 in /  0 mm
11:22 67.8 °F /  19.9 °C 58.4 °F /  14.7 °C 29.78 in /  1008.4 hPa NE 6.2 mph /  10 km/h 11.5 mph /  18.5 km/h 72 % 0.00 in /  0 mm
11:27 67.8 °F /  19.9 °C 58.4 °F /  14.7 °C 29.78 in /  1008.4 hPa NNE 4.8 mph /  7.7 km/h 9.2 mph /  14.8 km/h 72 % 0.00 in /  0 mm
11:32 67.7 °F /  19.8 °C 58.3 °F /  14.6 °C 29.77 in /  1008 hPa ENE 5.2 mph /  8.4 km/h 11.5 mph /  18.5 km/h 72 % 0.00 in /  0 mm
11:38 67.8 °F /  19.9 °C 58.8 °F /  14.9 °C 29.77 in /  1008 hPa NE 3.9 mph /  6.3 km/h 16.1 mph /  25.9 km/h 73 % 0.00 in /  0 mm
11:43 67.8 °F /  19.9 °C 59.2 °F /  15.1 °C 29.77 in /  1008 hPa NNE 5.2 mph /  8.4 km/h 9.2 mph /  14.8 km/h 74 % 0.00 in /  0 mm
11:48 67.9 °F /  19.9 °C 59.3 °F /  15.2 °C 29.77 in /  1008 hPa ENE 2.1 mph /  3.4 km/h 5.8 mph /  9.3 km/h 74 % 0.00 in /  0 mm
11:53 68.0 °F /  20 °C 59.4 °F /  15.2 °C 29.77 in /  1008 hPa East 3.4 mph /  5.5 km/h 9.2 mph /  14.8 km/h 74 % 0.00 in /  0 mm
11:58 68.0 °F /  20 °C 59.4 °F /  15.2 °C 29.76 in /  1007.7 hPa ENE 4.6 mph /  7.4 km/h 9.2 mph /  14.8 km/h 74 % 0.00 in /  0 mm
12:03 68.0 °F /  20 °C 59.0 °F /  15 °C 29.76 in /  1007.7 hPa NE 5.2 mph /  8.4 km/h 6.9 mph /  11.1 km/h 73 % 0.00 in /  0 mm
12:08 68.1 °F /  20.1 °C 59.1 °F /  15.1 °C 29.75 in /  1007.3 hPa ENE 4.8 mph /  7.7 km/h 8.1 mph /  13 km/h 73 % 0.00 in /  0 mm
12:13 68.2 °F /  20.1 °C 58.8 °F /  14.9 °C 29.76 in /  1007.7 hPa NE 4.2 mph /  6.8 km/h 9.2 mph /  14.8 km/h 72 % 0.00 in /  0 mm
12:23 68.4 °F /  20.2 °C 59.0 °F /  15 °C 29.75 in /  1007.3 hPa NE 3.3 mph /  5.3 km/h 11.5 mph /  18.5 km/h 72 % 0.00 in /  0 mm
12:28 68.5 °F /  20.3 °C 59.5 °F /  15.3 °C 29.75 in /  1007.3 hPa NE 6.4 mph /  10.3 km/h 11.5 mph /  18.5 km/h 73 % 0.00 in /  0 mm
12:33 68.6 °F /  20.3 °C 59.2 °F /  15.1 °C 29.75 in /  1007.3 hPa ENE 4.2 mph /  6.8 km/h 10.4 mph /  16.7 km/h 72 % 0.00 in /  0 mm
12:38 68.7 °F /  20.4 °C 59.3 °F /  15.2 °C 29.75 in /  1007.3 hPa NNE 6.6 mph /  10.6 km/h 11.5 mph /  18.5 km/h 72 % 0.00 in /  0 mm
12:43 68.8 °F /  20.4 °C 59.4 °F /  15.2 °C 29.75 in /  1007.3 hPa NE 3.8 mph /  6.1 km/h 6.9 mph /  11.1 km/h 72 % 0.00 in /  0 mm
12:48 68.9 °F /  20.5 °C 59.5 °F /  15.3 °C 29.75 in /  1007.3 hPa ENE 8.2 mph /  13.2 km/h 11.5 mph /  18.5 km/h 72 % 0.00 in /  0 mm
12:53 69.0 °F /  20.6 °C 60.0 °F /  15.6 °C 29.76 in /  1007.7 hPa ENE 4.6 mph /  7.4 km/h 9.0 mph /  14.5 km/h 73 % 0.00 in /  0 mm
12:58 69.1 °F /  20.6 °C 60.1 °F /  15.6 °C 29.76 in /  1007.7 hPa East 5.7 mph /  9.2 km/h 12.0 mph /  19.3 km/h 73 % 0.00 in /  0 mm
13:03 69.2 °F /  20.7 °C 59.8 °F /  15.4 °C 29.76 in /  1007.7 hPa North 5.6 mph /  9 km/h 9.2 mph /  14.8 km/h 72 % 0.00 in /  0 mm
13:08 69.3 °F /  20.7 °C 59.9 °F /  15.5 °C 29.76 in /  1007.7 hPa NE 5.3 mph /  8.5 km/h 8.1 mph /  13 km/h 72 % 0.00 in /  0 mm
13:13 69.4 °F /  20.8 °C 59.6 °F /  15.3 °C 29.77 in /  1008 hPa NE 5.8 mph /  9.3 km/h 12.0 mph /  19.3 km/h 71 % 0.00 in /  0 mm
13:18 69.4 °F /  20.8 °C 60.4 °F /  15.8 °C 29.77 in /  1008 hPa ENE 5.1 mph /  8.2 km/h 9.2 mph /  14.8 km/h 73 % 0.00 in /  0 mm
13:23 69.4 °F /  20.8 °C 59.6 °F /  15.3 °C 29.77 in /  1008 hPa ENE 4.3 mph /  6.9 km/h 8.1 mph /  13 km/h 71 % 0.00 in /  0 mm
13:28 69.5 °F /  20.8 °C 59.7 °F /  15.4 °C 29.77 in /  1008 hPa ESE 4.5 mph /  7.2 km/h 10.4 mph /  16.7 km/h 71 % 0.00 in /  0 mm
13:33 69.5 °F /  20.8 °C 60.1 °F /  15.6 °C 29.77 in /  1008 hPa NE 4.0 mph /  6.4 km/h 6.9 mph /  11.1 km/h 72 % 0.00 in /  0 mm
13:38 69.5 °F /  20.8 °C 59.7 °F /  15.4 °C 29.76 in /  1007.7 hPa NE 4.7 mph /  7.6 km/h 6.9 mph /  11.1 km/h 71 % 0.00 in /  0 mm
13:43 69.6 °F /  20.9 °C 60.2 °F /  15.7 °C 29.77 in /  1008 hPa NE 7.8 mph /  12.6 km/h 10.4 mph /  16.7 km/h 72 % 0.00 in /  0 mm
13:48 69.6 °F /  20.9 °C 59.8 °F /  15.4 °C 29.77 in /  1008 hPa NE 5.1 mph /  8.2 km/h 8.1 mph /  13 km/h 71 % 0.00 in /  0 mm
13:53 69.6 °F /  20.9 °C 60.6 °F /  15.9 °C 29.77 in /  1008 hPa NE 2.6 mph /  4.2 km/h 10.4 mph /  16.7 km/h 73 % 0.00 in /  0 mm
13:55 69.6 °F /  20.9 °C 60.2 °F /  15.7 °C 29.76 in /  1007.7 hPa NE 5.6 mph /  9 km/h 9.2 mph /  14.8 km/h 72 % 0.00 in /  0 mm
14:00 69.6 °F /  20.9 °C 60.2 °F /  15.7 °C 29.77 in /  1008 hPa NE 4.2 mph /  6.8 km/h 8.1 mph /  13 km/h 72 % 0.00 in /  0 mm
14:05 69.7 °F /  20.9 °C 60.7 °F /  15.9 °C 29.76 in /  1007.7 hPa ENE 3.3 mph /  5.3 km/h 8.1 mph /  13 km/h 73 % 0.00 in /  0 mm
14:10 69.8 °F /  21 °C 60.8 °F /  16 °C 29.76 in /  1007.7 hPa North 4.7 mph /  7.6 km/h 9.2 mph /  14.8 km/h 73 % 0.00 in /  0 mm
14:15 69.9 °F /  21.1 °C 60.5 °F /  15.8 °C 29.76 in /  1007.7 hPa NNE 5.3 mph /  8.5 km/h 8.1 mph /  13 km/h 72 % 0.00 in /  0 mm
14:20 69.9 °F /  21.1 °C 60.5 °F /  15.8 °C 29.76 in /  1007.7 hPa ENE 5.4 mph /  8.7 km/h 9.2 mph /  14.8 km/h 72 % 0.00 in /  0 mm
14:25 69.9 °F /  21.1 °C 60.5 °F /  15.8 °C 29.76 in /  1007.7 hPa NE 7.0 mph /  11.3 km/h 11.5 mph /  18.5 km/h 72 % 0.00 in /  0 mm
14:30 69.9 °F /  21.1 °C 60.5 °F /  15.8 °C 29.76 in /  1007.7 hPa NE 5.0 mph /  8 km/h 9.2 mph /  14.8 km/h 72 % 0.00 in /  0 mm
14:35 70.1 °F /  21.2 °C 60.3 °F /  15.7 °C 29.76 in /  1007.7 hPa NE 4.1 mph /  6.6 km/h 6.9 mph /  11.1 km/h 71 % 0.00 in /  0 mm
14:40 70.2 °F /  21.2 °C 60.7 °F /  15.9 °C 29.76 in /  1007.7 hPa NE 3.8 mph /  6.1 km/h 6.9 mph /  11.1 km/h 72 % 0.00 in /  0 mm
14:45 70.2 °F /  21.2 °C 60.7 °F /  15.9 °C 29.76 in /  1007.7 hPa NE 6.0 mph /  9.7 km/h 9.2 mph /  14.8 km/h 72 % 0.00 in /  0 mm
14:50 70.1 °F /  21.2 °C 60.7 °F /  15.9 °C 29.76 in /  1007.7 hPa NNE 6.7 mph /  10.8 km/h 11.5 mph /  18.5 km/h 72 % 0.00 in /  0 mm
14:55 70.2 °F /  21.2 °C 60.7 °F /  15.9 °C 29.76 in /  1007.7 hPa NE 8.6 mph /  13.8 km/h 11.5 mph /  18.5 km/h 72 % 0.00 in /  0 mm
15:00 70.2 °F /  21.2 °C 61.1 °F /  16.2 °C 29.76 in /  1007.7 hPa NE 4.7 mph /  7.6 km/h 11.5 mph /  18.5 km/h 73 % 0.00 in /  0 mm
15:05 70.2 °F /  21.2 °C 61.1 °F /  16.2 °C 29.75 in /  1007.3 hPa NNE 5.4 mph /  8.7 km/h 9.0 mph /  14.5 km/h 73 % 0.00 in /  0 mm
15:10 70.2 °F /  21.2 °C 60.7 °F /  15.9 °C 29.76 in /  1007.7 hPa ENE 4.0 mph /  6.4 km/h 8.0 mph /  12.9 km/h 72 % 0.00 in /  0 mm
15:15 70.2 °F /  21.2 °C 60.7 °F /  15.9 °C 29.76 in /  1007.7 hPa ENE 4.4 mph /  7.1 km/h 13.8 mph /  22.2 km/h 72 % 0.00 in /  0 mm
15:20 70.2 °F /  21.2 °C 61.9 °F /  16.6 °C 29.76 in /  1007.7 hPa NNE 4.3 mph /  6.9 km/h 7.0 mph /  11.3 km/h 75 % 0.00 in /  0 mm
15:25 70.1 °F /  21.2 °C 61.8 °F /  16.6 °C 29.75 in /  1007.3 hPa NE 8.8 mph /  14.2 km/h 15.0 mph /  24.1 km/h 75 % 0.00 in /  0 mm
15:35 70.0 °F /  21.1 °C 60.9 °F /  16.1 °C 29.76 in /  1007.7 hPa NE 5.3 mph /  8.5 km/h 11.5 mph /  18.5 km/h 73 % 0.00 in /  0 mm
15:40 70.0 °F /  21.1 °C 61.7 °F /  16.5 °C 29.76 in /  1007.7 hPa ENE 6.0 mph /  9.7 km/h 9.2 mph /  14.8 km/h 75 % 0.00 in /  0 mm
15:46 69.9 °F /  21.1 °C 62.0 °F /  16.7 °C 29.76 in /  1007.7 hPa ENE 3.0 mph /  4.8 km/h 12.0 mph /  19.3 km/h 76 % 0.00 in /  0 mm
15:51 69.9 °F /  21.1 °C 62.3 °F /  16.8 °C 29.76 in /  1007.7 hPa ENE 3.0 mph /  4.8 km/h 7.0 mph /  11.3 km/h 77 % 0.00 in /  0 mm
15:56 69.8 °F /  21 °C 62.3 °F /  16.8 °C 29.76 in /  1007.7 hPa ENE 3.0 mph /  4.8 km/h 8.0 mph /  12.9 km/h 77 % 0.00 in /  0 mm
16:01 69.8 °F /  21 °C 63.0 °F /  17.2 °C 29.76 in /  1007.7 hPa NNE 2.4 mph /  3.9 km/h 8.0 mph /  12.9 km/h 79 % 0.00 in /  0 mm
16:06 69.8 °F /  21 °C 61.9 °F /  16.6 °C 29.76 in /  1007.7 hPa North 5.7 mph /  9.2 km/h 11.0 mph /  17.7 km/h 76 % 0.00 in /  0 mm
16:11 70.0 °F /  21.1 °C 62.1 °F /  16.7 °C 29.76 in /  1007.7 hPa NE 4.2 mph /  6.8 km/h 8.0 mph /  12.9 km/h 76 % 0.00 in /  0 mm
16:16 70.2 °F /  21.2 °C 61.9 °F /  16.6 °C 29.76 in /  1007.7 hPa NNE 4.9 mph /  7.9 km/h 9.2 mph /  14.8 km/h 75 % 0.00 in /  0 mm
16:21 70.4 °F /  21.3 °C 61.7 °F /  16.5 °C 29.76 in /  1007.7 hPa North 4.5 mph /  7.2 km/h 11.0 mph /  17.7 km/h 74 % 0.00 in /  0 mm
16:26 70.6 °F /  21.4 °C 62.3 °F /  16.8 °C 29.76 in /  1007.7 hPa North 4.0 mph /  6.4 km/h 8.1 mph /  13 km/h 75 % 0.00 in /  0 mm
16:31 70.7 °F /  21.5 °C 61.6 °F /  16.4 °C 29.77 in /  1008 hPa NNE 4.7 mph /  7.6 km/h 9.2 mph /  14.8 km/h 73 % 0.00 in /  0 mm
16:36 70.9 °F /  21.6 °C 61.8 °F /  16.6 °C 29.76 in /  1007.7 hPa NE 4.4 mph /  7.1 km/h 10.4 mph /  16.7 km/h 73 % 0.00 in /  0 mm
16:41 71.1 °F /  21.7 °C 61.6 °F /  16.4 °C 29.77 in /  1008 hPa NE 7.3 mph /  11.7 km/h 9.2 mph /  14.8 km/h 72 % 0.00 in /  0 mm
16:47 71.3 °F /  21.8 °C 61.8 °F /  16.6 °C 29.76 in /  1007.7 hPa ENE 3.6 mph /  5.8 km/h 8.1 mph /  13 km/h 72 % 0.00 in /  0 mm
16:52 71.4 °F /  21.9 °C 61.9 °F /  16.6 °C 29.76 in /  1007.7 hPa NE 3.7 mph /  6 km/h 5.8 mph /  9.3 km/h 72 % 0.00 in /  0 mm
16:57 71.6 °F /  22 °C 62.1 °F /  16.7 °C 29.76 in /  1007.7 hPa NE 4.1 mph /  6.6 km/h 5.0 mph /  8 km/h 72 % 0.00 in /  0 mm
17:02 71.8 °F /  22.1 °C 61.9 °F /  16.6 °C 29.76 in /  1007.7 hPa ENE 4.3 mph /  6.9 km/h 6.9 mph /  11.1 km/h 71 % 0.00 in /  0 mm
17:07 71.9 °F /  22.2 °C 62.4 °F /  16.9 °C 29.77 in /  1008 hPa NE 3.4 mph /  5.5 km/h 4.6 mph /  7.4 km/h 72 % 0.00 in /  0 mm
17:12 72.1 °F /  22.3 °C 62.6 °F /  17 °C 29.77 in /  1008 hPa NE 3.8 mph /  6.1 km/h 6.9 mph /  11.1 km/h 72 % 0.00 in /  0 mm
17:17 72.2 °F /  22.3 °C 63.1 °F /  17.3 °C 29.77 in /  1008 hPa NNE 2.2 mph /  3.5 km/h 4.6 mph /  7.4 km/h 73 % 0.00 in /  0 mm
17:22 72.2 °F /  22.3 °C 62.7 °F /  17.1 °C 29.77 in /  1008 hPa ENE 4.0 mph /  6.4 km/h 4.0 mph /  6.4 km/h 72 % 0.00 in /  0 mm
17:27 72.3 °F /  22.4 °C 63.2 °F /  17.3 °C 29.77 in /  1008 hPa NE 2.5 mph /  4 km/h 6.9 mph /  11.1 km/h 73 % 0.00 in /  0 mm
17:32 72.3 °F /  22.4 °C 63.2 °F /  17.3 °C 29.77 in /  1008 hPa NE 2.9 mph /  4.7 km/h 6.9 mph /  11.1 km/h 73 % 0.00 in /  0 mm
17:37 72.2 °F /  22.3 °C 62.7 °F /  17.1 °C 29.77 in /  1008 hPa ENE 3.6 mph /  5.8 km/h 5.0 mph /  8 km/h 72 % 0.00 in /  0 mm
17:42 72.2 °F /  22.3 °C 62.7 °F /  17.1 °C 29.77 in /  1008 hPa ENE 3.2 mph /  5.1 km/h 5.8 mph /  9.3 km/h 72 % 0.00 in /  0 mm
17:47 72.2 °F /  22.3 °C 63.1 °F /  17.3 °C 29.77 in /  1008 hPa ENE 3.4 mph /  5.5 km/h 6.9 mph /  11.1 km/h 73 % 0.00 in /  0 mm
17:52 72.2 °F /  22.3 °C 63.1 °F /  17.3 °C 29.77 in /  1008 hPa NE 3.1 mph /  5 km/h 7.0 mph /  11.3 km/h 73 % 0.00 in /  0 mm
17:57 72.2 °F /  22.3 °C 63.4 °F /  17.4 °C 29.77 in /  1008 hPa NE 3.7 mph /  6 km/h 8.1 mph /  13 km/h 74 % 0.00 in /  0 mm
18:02 72.1 °F /  22.3 °C 63.0 °F /  17.2 °C 29.77 in /  1008 hPa East 4.9 mph /  7.9 km/h 9.2 mph /  14.8 km/h 73 % 0.00 in /  0 mm
18:07 72.1 °F /  22.3 °C 62.6 °F /  17 °C 29.77 in /  1008 hPa NE 4.4 mph /  7.1 km/h 8.1 mph /  13 km/h 72 % 0.00 in /  0 mm
18:12 72.2 °F /  22.3 °C 62.7 °F /  17.1 °C 29.77 in /  1008 hPa NNE 2.8 mph /  4.5 km/h 3.5 mph /  5.6 km/h 72 % 0.00 in /  0 mm
18:17 72.2 °F /  22.3 °C 63.1 °F /  17.3 °C 29.77 in /  1008 hPa ENE 2.9 mph /  4.7 km/h 6.9 mph /  11.1 km/h 73 % 0.00 in /  0 mm
18:22 72.3 °F /  22.4 °C 63.5 °F /  17.5 °C 29.77 in /  1008 hPa ENE 3.0 mph /  4.8 km/h 9.2 mph /  14.8 km/h 74 % 0.00 in /  0 mm
18:27 72.5 °F /  22.5 °C 63.7 °F /  17.6 °C 29.77 in /  1008 hPa NNE 3.1 mph /  5 km/h 6.0 mph /  9.7 km/h 74 % 0.00 in /  0 mm
18:32 72.6 °F /  22.6 °C 63.4 °F /  17.4 °C 29.78 in /  1008.4 hPa NE 3.7 mph /  6 km/h 7.0 mph /  11.3 km/h 73 % 0.00 in /  0 mm
18:42 72.9 °F /  22.7 °C 62.9 °F /  17.2 °C 29.77 in /  1008 hPa NE 4.5 mph /  7.2 km/h 8.1 mph /  13 km/h 71 % 0.00 in /  0 mm
18:47 73.0 °F /  22.8 °C 62.6 °F /  17 °C 29.78 in /  1008.4 hPa NE 2.8 mph /  4.5 km/h 9.2 mph /  14.8 km/h 70 % 0.00 in /  0 mm
18:57 73.4 °F /  23 °C 63.8 °F /  17.7 °C 29.78 in /  1008.4 hPa NE 3.5 mph /  5.6 km/h 5.0 mph /  8 km/h 72 % 0.00 in /  0 mm
19:02 73.5 °F /  23.1 °C 63.9 °F /  17.7 °C 29.78 in /  1008.4 hPa NNE 3.9 mph /  6.3 km/h 7.0 mph /  11.3 km/h 72 % 0.00 in /  0 mm
19:07 73.5 °F /  23.1 °C 62.7 °F /  17.1 °C 29.78 in /  1008.4 hPa NE 4.0 mph /  6.4 km/h 6.9 mph /  11.1 km/h 69 % 0.00 in /  0 mm
19:12 73.5 °F /  23.1 °C 62.7 °F /  17.1 °C 29.78 in /  1008.4 hPa NNE 3.4 mph /  5.5 km/h 6.9 mph /  11.1 km/h 69 % 0.00 in /  0 mm
19:22 73.5 °F /  23.1 °C 63.1 °F /  17.3 °C 29.79 in /  1008.7 hPa NE 2.6 mph /  4.2 km/h 6.9 mph /  11.1 km/h 70 % 0.00 in /  0 mm
19:27 73.4 °F /  23 °C 63.4 °F /  17.4 °C 29.79 in /  1008.7 hPa NNE 3.7 mph /  6 km/h 5.8 mph /  9.3 km/h 71 % 0.00 in /  0 mm
19:32 73.3 °F /  22.9 °C 63.3 °F /  17.4 °C 29.79 in /  1008.7 hPa NNE 3.4 mph /  5.5 km/h 8.0 mph /  12.9 km/h 71 % 0.00 in /  0 mm
19:37 73.0 °F /  22.8 °C 63.0 °F /  17.2 °C 29.79 in /  1008.7 hPa NE 3.0 mph /  4.8 km/h 6.9 mph /  11.1 km/h 71 % 0.00 in /  0 mm
19:42 72.8 °F /  22.7 °C 62.8 °F /  17.1 °C 29.79 in /  1008.7 hPa NNE 2.7 mph /  4.3 km/h 4.6 mph /  7.4 km/h 71 % 0.00 in /  0 mm
19:47 72.6 °F /  22.6 °C 63.1 °F /  17.3 °C 29.79 in /  1008.7 hPa NNE 1.9 mph /  3.1 km/h 5.8 mph /  9.3 km/h 72 % 0.00 in /  0 mm
19:52 72.5 °F /  22.5 °C 63.0 °F /  17.2 °C 29.79 in /  1008.7 hPa ENE 2.4 mph /  3.9 km/h 4.6 mph /  7.4 km/h 72 % 0.00 in /  0 mm
19:58 72.2 °F /  22.3 °C 62.3 °F /  16.8 °C 29.79 in /  1008.7 hPa ENE 3.2 mph /  5.1 km/h 4.0 mph /  6.4 km/h 71 % 0.00 in /  0 mm
20:03 72.0 °F /  22.2 °C 62.5 °F /  16.9 °C 29.80 in /  1009 hPa NE 3.4 mph /  5.5 km/h 6.9 mph /  11.1 km/h 72 % 0.00 in /  0 mm
20:08 71.8 °F /  22.1 °C 62.3 °F /  16.8 °C 29.79 in /  1008.7 hPa East 4.3 mph /  6.9 km/h 6.9 mph /  11.1 km/h 72 % 0.00 in /  0 mm
20:13 71.7 °F /  22.1 °C 62.2 °F /  16.8 °C 29.80 in /  1009 hPa NE 2.5 mph /  4 km/h 3.5 mph /  5.6 km/h 72 % 0.00 in /  0 mm
20:18 71.6 °F /  22 °C 62.1 °F /  16.7 °C 29.80 in /  1009 hPa NE 2.9 mph /  4.7 km/h 5.8 mph /  9.3 km/h 72 % 0.00 in /  0 mm
20:23 71.4 °F /  21.9 °C 62.3 °F /  16.8 °C 29.80 in /  1009 hPa NE 1.6 mph /  2.6 km/h 3.5 mph /  5.6 km/h 73 % 0.00 in /  0 mm
20:28 71.3 °F /  21.8 °C 61.8 °F /  16.6 °C 29.81 in /  1009.4 hPa NE 2.2 mph /  3.5 km/h 3.5 mph /  5.6 km/h 72 % 0.00 in /  0 mm
20:33 71.1 °F /  21.7 °C 61.6 °F /  16.4 °C 29.81 in /  1009.4 hPa ENE 3.2 mph /  5.1 km/h 4.0 mph /  6.4 km/h 72 % 0.00 in /  0 mm
20:38 71.0 °F /  21.7 °C 61.1 °F /  16.2 °C 29.81 in /  1009.4 hPa NE 4.8 mph /  7.7 km/h 8.1 mph /  13 km/h 71 % 0.00 in /  0 mm
20:43 70.8 °F /  21.6 °C 60.5 °F /  15.8 °C 29.81 in /  1009.4 hPa ENE 3.7 mph /  6 km/h 8.1 mph /  13 km/h 70 % 0.00 in /  0 mm
20:48 70.7 °F /  21.5 °C 60.8 °F /  16 °C 29.81 in /  1009.4 hPa ENE 2.9 mph /  4.7 km/h 6.9 mph /  11.1 km/h 71 % 0.00 in /  0 mm
20:54 70.6 °F /  21.4 °C 60.7 °F /  15.9 °C 29.81 in /  1009.4 hPa ENE 4.6 mph /  7.4 km/h 8.1 mph /  13 km/h 71 % 0.00 in /  0 mm
20:56 70.6 °F /  21.4 °C 60.3 °F /  15.7 °C 29.81 in /  1009.4 hPa ENE 5.0 mph /  8 km/h 9.0 mph /  14.5 km/h 70 % 0.00 in /  0 mm
21:01 70.5 °F /  21.4 °C 60.2 °F /  15.7 °C 29.81 in /  1009.4 hPa ENE 3.4 mph /  5.5 km/h 8.1 mph /  13 km/h 70 % 0.00 in /  0 mm
21:06 70.4 °F /  21.3 °C 59.7 °F /  15.4 °C 29.81 in /  1009.4 hPa ENE 2.9 mph /  4.7 km/h 4.6 mph /  7.4 km/h 69 % 0.00 in /  0 mm
21:11 70.3 °F /  21.3 °C 60.4 °F /  15.8 °C 29.82 in /  1009.7 hPa ENE 3.7 mph /  6 km/h 6.9 mph /  11.1 km/h 71 % 0.00 in /  0 mm
21:16 70.2 °F /  21.2 °C 60.7 °F /  15.9 °C 29.82 in /  1009.7 hPa NE 3.0 mph /  4.8 km/h 6.9 mph /  11.1 km/h 72 % 0.00 in /  0 mm
21:21 70.1 °F /  21.2 °C 60.7 °F /  15.9 °C 29.82 in /  1009.7 hPa ENE 2.6 mph /  4.2 km/h 4.6 mph /  7.4 km/h 72 % 0.00 in /  0 mm
21:26 70.0 °F /  21.1 °C 60.9 °F /  16.1 °C 29.82 in /  1009.7 hPa NE 2.1 mph /  3.4 km/h 3.5 mph /  5.6 km/h 73 % 0.00 in /  0 mm
21:31 69.9 °F /  21.1 °C 60.5 °F /  15.8 °C 29.82 in /  1009.7 hPa ENE 2.7 mph /  4.3 km/h 6.0 mph /  9.7 km/h 72 % 0.00 in /  0 mm
21:36 69.8 °F /  21 °C 60.4 °F /  15.8 °C 29.82 in /  1009.7 hPa NE 2.1 mph /  3.4 km/h 6.9 mph /  11.1 km/h 72 % 0.00 in /  0 mm
21:41 69.6 °F /  20.9 °C 59.8 °F /  15.4 °C 29.82 in /  1009.7 hPa ENE 3.2 mph /  5.1 km/h 8.1 mph /  13 km/h 71 % 0.00 in /  0 mm
21:46 69.5 °F /  20.8 °C 58.9 °F /  14.9 °C 29.82 in /  1009.7 hPa ENE 3.0 mph /  4.8 km/h 8.1 mph /  13 km/h 69 % 0.00 in /  0 mm
21:51 69.4 °F /  20.8 °C 58.8 °F /  14.9 °C 29.83 in /  1010 hPa NE 3.7 mph /  6 km/h 8.1 mph /  13 km/h 69 % 0.00 in /  0 mm
21:56 69.4 °F /  20.8 °C 59.2 °F /  15.1 °C 29.83 in /  1010 hPa NE 3.0 mph /  4.8 km/h 4.0 mph /  6.4 km/h 70 % 0.00 in /  0 mm
22:01 69.3 °F /  20.7 °C 59.1 °F /  15.1 °C 29.83 in /  1010 hPa ENE 4.2 mph /  6.8 km/h 8.1 mph /  13 km/h 70 % 0.00 in /  0 mm
22:06 69.3 °F /  20.7 °C 59.1 °F /  15.1 °C 29.83 in /  1010 hPa ENE 3.0 mph /  4.8 km/h 6.9 mph /  11.1 km/h 70 % 0.00 in /  0 mm
22:11 69.2 °F /  20.7 °C 59.8 °F /  15.4 °C 29.83 in /  1010 hPa NE 2.5 mph /  4 km/h 4.6 mph /  7.4 km/h 72 % 0.00 in /  0 mm
22:16 69.1 °F /  20.6 °C 59.7 °F /  15.4 °C 29.83 in /  1010 hPa ENE 4.0 mph /  6.4 km/h 6.9 mph /  11.1 km/h 72 % 0.00 in /  0 mm
22:21 69.0 °F /  20.6 °C 59.2 °F /  15.1 °C 29.82 in /  1009.7 hPa NNE 1.6 mph /  2.6 km/h 4.6 mph /  7.4 km/h 71 % 0.00 in /  0 mm
22:26 69.0 °F /  20.6 °C 59.2 °F /  15.1 °C 29.83 in /  1010 hPa NE 3.4 mph /  5.5 km/h 4.6 mph /  7.4 km/h 71 % 0.00 in /  0 mm
22:31 68.9 °F /  20.5 °C 59.5 °F /  15.3 °C 29.83 in /  1010 hPa NE 1.2 mph /  1.9 km/h 2.3 mph /  3.7 km/h 72 % 0.00 in /  0 mm
22:37 68.9 °F /  20.5 °C 59.9 °F /  15.5 °C 29.83 in /  1010 hPa ENE 2.7 mph /  4.3 km/h 3.5 mph /  5.6 km/h 73 % 0.00 in /  0 mm
22:42 68.7 °F /  20.4 °C 59.3 °F /  15.2 °C 29.83 in /  1010 hPa NE 3.2 mph /  5.1 km/h 8.1 mph /  13 km/h 72 % 0.00 in /  0 mm
22:47 68.7 °F /  20.4 °C 59.7 °F /  15.4 °C 29.83 in /  1010 hPa East 3.7 mph /  6 km/h 9.2 mph /  14.8 km/h 73 % 0.00 in /  0 mm
22:52 68.5 °F /  20.3 °C 59.5 °F /  15.3 °C 29.83 in /  1010 hPa NE 1.7 mph /  2.7 km/h 3.5 mph /  5.6 km/h 73 % 0.00 in /  0 mm
22:57 68.5 °F /  20.3 °C 59.5 °F /  15.3 °C 29.84 in /  1010.4 hPa NE 2.7 mph /  4.3 km/h 5.8 mph /  9.3 km/h 73 % 0.00 in /  0 mm
23:02 68.3 °F /  20.2 °C 59.3 °F /  15.2 °C 29.84 in /  1010.4 hPa NE 3.7 mph /  6 km/h 9.2 mph /  14.8 km/h 73 % 0.00 in /  0 mm
23:07 68.3 °F /  20.2 °C 58.5 °F /  14.7 °C 29.84 in /  1010.4 hPa ENE 1.8 mph /  2.9 km/h 4.0 mph /  6.4 km/h 71 % 0.00 in /  0 mm
23:12 68.2 °F /  20.1 °C 59.2 °F /  15.1 °C 29.84 in /  1010.4 hPa NE 3.4 mph /  5.5 km/h 5.0 mph /  8 km/h 73 % 0.00 in /  0 mm
23:17 68.1 °F /  20.1 °C 59.1 °F /  15.1 °C 29.84 in /  1010.4 hPa ENE 2.8 mph /  4.5 km/h 5.0 mph /  8 km/h 73 % 0.00 in /  0 mm
23:22 68.0 °F /  20 °C 59.4 °F /  15.2 °C 29.84 in /  1010.4 hPa NE 4.2 mph /  6.8 km/h 6.9 mph /  11.1 km/h 74 % 0.00 in /  0 mm
23:27 67.9 °F /  19.9 °C 58.9 °F /  14.9 °C 29.84 in /  1010.4 hPa NE 4.6 mph /  7.4 km/h 9.2 mph /  14.8 km/h 73 % 0.00 in /  0 mm
23:32 67.8 °F /  19.9 °C 58.8 °F /  14.9 °C 29.84 in /  1010.4 hPa NNW 5.7 mph /  9.2 km/h 9.2 mph /  14.8 km/h 73 % 0.00 in /  0 mm
23:37 67.8 °F /  19.9 °C 59.2 °F /  15.1 °C 29.84 in /  1010.4 hPa North 6.0 mph /  9.7 km/h 8.1 mph /  13 km/h 74 % 0.00 in /  0 mm
23:42 67.7 °F /  19.8 °C 59.1 °F /  15.1 °C 29.84 in /  1010.4 hPa North 4.4 mph /  7.1 km/h 8.1 mph /  13 km/h 74 % 0.00 in /  0 mm
23:47 67.7 °F /  19.8 °C 59.1 °F /  15.1 °C 29.84 in /  1010.4 hPa NNE 4.8 mph /  7.7 km/h 8.1 mph /  13 km/h 74 % 0.00 in /  0 mm
23:52 67.6 °F /  19.8 °C 59.0 °F /  15 °C 29.84 in /  1010.4 hPa NNE 5.7 mph /  9.2 km/h 8.1 mph /  13 km/h 74 % 0.00 in /  0 mm
23:57 67.5 °F /  19.7 °C 59.3 °F /  15.2 °C 29.84 in /  1010.4 hPa North 4.0 mph /  6.4 km/h 7.0 mph /  11.3 km/h 75 % 0.00 in /  0 mm
Crab Meadow Weather
Compliments of Weather Underground - 3 mb

Script developed by  Jim McMurry - jmcmurry@mwt.net Adapted for the template by  Wim van der Kuil - Leuven-Template.eu

Recycling: In 2006, a record 53.4 percent of the paper consumed in the U.S. was recovered for recycling. Americans recovered an extraordinary 53.5 million tons, averaging 360 pounds per person.